Saint Petersburg, Russia
Current Conditions -  °F | °C
As of 6:00 PM on Tuesday 21 Oct 2014 (Local Time) from ULLI Reporting Station
Overcast Overcast  
Wind Chill: 23°   Ceiling: 3000
Heat Index: 32°   Visibility: 6mi
Dew Point: 23°   Wind: 11mph
Humidity: 69%   Direction: 60°ENE
Pressure: 29.83"   Gusts: NA
Location:  59.93°N, 30.32°E
Report Text: ULLI 211500Z 06005MPS 9999 OVC030 00/M05 Q1010 88190060 NOSIG
Loading
Personal Weather Stations






























Interactive Weather Map
Tropical Storm Tracking
New forecast layout! Learn more

10-Day Weather Forecast

Advertisements
Track Severe Weather on mobile